Time;durP1;ratioP1;P1;durP2;ratioP2;P2;SDS_P1;SDS_P2;PMS_P1;PMS_P2;Temp;Humidity;BMP_temperature;BMP_pressure;BME280_temperature;BME280_humidity;BME280_pressure;Samples;Min_cycle;Max_cycle;Signal;HPM_P1;HPM_P2
2024/01/01 00:00:18;;;;;;;83.45;52.17;;;;;;;;;;5031223;28;20081;-79
2024/01/01 00:02:45;;;;;;;85.53;53.17;;;;;;;;;;5034301;28;20026;-79
2024/01/01 00:05:11;;;;;;;84.10;50.40;;;;;;;;;;5029620;28;20033;-79
2024/01/01 00:07:37;;;;;;;78.07;46.75;;;;;;;;;;5034590;28;20554;-80
2024/01/01 00:10:04;;;;;;;68.32;42.33;;;;;;;;;;5032831;28;20022;-78
2024/01/01 00:12:32;;;;;;;73.57;44.83;;;;;;;;;;5024951;28;20030;-79
2024/01/01 00:14:59;;;;;;;62.05;38.85;;;;;;;;;;5034035;28;20083;-79
2024/01/01 00:17:25;;;;;;;64.80;38.50;;;;;;;;;;5039611;28;20127;-78
2024/01/01 00:19:52;;;;;;;51.00;33.08;;;;;;;;;;5025505;28;20074;-79
2024/01/01 00:22:20;;;;;;;44.67;28.90;;;;;;;;;;5022120;28;20085;-78
2024/01/01 00:24:46;;;;;;;43.97;26.27;;;;;;;;;;5035378;28;20079;-79
2024/01/01 00:27:12;;;;;;;35.97;22.52;;;;;;;;;;5027739;28;20018;-79
2024/01/01 00:29:38;;;;;;;33.72;19.98;;;;;;;;;;5030443;28;20121;-77
2024/01/01 00:32:05;;;;;;;33.05;19.77;;;;;;;;;;5038635;28;20365;-78
2024/01/01 00:34:31;;;;;;;24.80;15.40;;;;;;;;;;5023585;28;20029;-79
2024/01/01 00:36:57;;;;;;;20.10;12.25;;;;;;;;;;5026718;28;20036;-78
2024/01/01 00:39:24;;;;;;;19.00;11.35;;;;;;;;;;5026136;28;20030;-78
2024/01/01 00:41:50;;;;;;;17.10;9.40;;;;;;;;;;5037479;28;20104;-79
2024/01/01 00:44:16;;;;;;;14.20;9.07;;;;;;;;;;5044712;28;20025;-78
2024/01/01 00:46:42;;;;;;;13.68;7.45;;;;;;;;;;5037220;28;20133;-77
2024/01/01 00:49:08;;;;;;;11.90;6.93;;;;;;;;;;5046481;28;20014;-77
2024/01/01 00:51:34;;;;;;;12.15;6.60;;;;;;;;;;5058538;28;20032;-77
2024/01/01 00:54:01;;;;;;;11.43;6.30;;;;;;;;;;5046278;28;20093;-78
2024/01/01 00:56:27;;;;;;;9.57;5.88;;;;;;;;;;5057016;28;20049;-78
2024/01/01 00:58:53;;;;;;;12.02;6.45;;;;;;;;;;5051547;28;20056;-77
2024/01/01 01:01:19;;;;;;;12.27;6.13;;;;;;;;;;5041323;28;20030;-77
2024/01/01 01:03:45;;;;;;;8.50;5.25;;;;;;;;;;5052115;28;20048;-77
2024/01/01 01:06:11;;;;;;;11.05;6.47;;;;;;;;;;5045429;28;20014;-78
2024/01/01 01:08:37;;;;;;;7.97;4.95;;;;;;;;;;5046988;28;20021;-78
2024/01/01 01:11:04;;;;;;;7.43;5.18;;;;;;;;;;5046271;28;20037;-78
2024/01/01 01:13:30;;;;;;;7.15;4.38;;;;;;;;;;5045717;28;20085;-77
2024/01/01 01:15:56;;;;;;;5.95;4.13;;;;;;;;;;5041969;28;20131;-77
2024/01/01 01:18:22;;;;;;;5.47;3.50;;;;;;;;;;5044069;28;20025;-78
2024/01/01 01:20:48;;;;;;;6.93;4.35;;;;;;;;;;5043289;28;20038;-78
2024/01/01 01:23:14;;;;;;;7.20;4.15;;;;;;;;;;5043527;28;20029;-79
2024/01/01 01:25:41;;;;;;;7.05;4.20;;;;;;;;;;5041322;28;20030;-78
2024/01/01 01:28:08;;;;;;;5.50;3.40;;;;;;;;;;5035947;28;20057;-79
2024/01/01 01:30:34;;;;;;;4.97;3.72;;;;;;;;;;5044915;28;20018;-79
2024/01/01 01:33:00;;;;;;;5.72;3.20;;;;;;;;;;5040818;28;20026;-78
2024/01/01 01:35:26;;;;;;;5.15;3.83;;;;;;;;;;5047052;28;20082;-78
2024/01/01 01:37:52;;;;;;;5.80;3.20;;;;;;;;;;5040571;28;20033;-78
2024/01/01 01:40:19;;;;;;;4.93;3.08;;;;;;;;;;5044802;28;20097;-79
2024/01/01 01:42:48;;;;;;;5.53;3.00;;;;;;;;;;5036882;28;20052;-78
2024/01/01 01:45:14;;;;;;;3.35;2.47;;;;;;;;;;5044759;28;20030;-78
2024/01/01 01:47:44;;;;;;;3.58;2.55;;;;;;;;;;5045396;28;20033;-79
2024/01/01 01:50:11;;;;;;;3.50;2.92;;;;;;;;;;5041216;28;20158;-79
2024/01/01 01:52:38;;;;;;;3.85;2.72;;;;;;;;;;5039949;28;20060;-79
2024/01/01 01:55:04;;;;;;;4.38;2.38;;;;;;;;;;5034440;28;20544;-78
2024/01/01 01:57:31;;;;;;;2.78;2.22;;;;;;;;;;5041619;28;20112;-78
2024/01/01 01:59:58;;;;;;;3.60;2.40;;;;;;;;;;5032220;28;20030;-78
2024/01/01 02:02:24;;;;;;;3.45;2.42;;;;;;;;;;5036800;28;20025;-78
2024/01/01 02:04:50;;;;;;;2.65;2.03;;;;;;;;;;5032895;28;20020;-80
2024/01/01 02:07:16;;;;;;;4.53;2.38;;;;;;;;;;5036754;28;20045;-78
2024/01/01 02:09:42;;;;;;;2.33;2.13;;;;;;;;;;5036814;28;20033;-77
2024/01/01 02:12:09;;;;;;;2.95;2.13;;;;;;;;;;5038919;28;20026;-79
2024/01/01 02:14:35;;;;;;;3.58;2.03;;;;;;;;;;5034713;28;20097;-78
2024/01/01 02:17:02;;;;;;;3.42;2.20;;;;;;;;;;5042767;28;20074;-77
2024/01/01 02:19:28;;;;;;;3.70;2.00;;;;;;;;;;5032846;28;20156;-78
2024/01/01 02:21:56;;;;;;;3.25;2.00;;;;;;;;;;5030499;28;20034;-78
2024/01/01 02:24:22;;;;;;;3.22;1.88;;;;;;;;;;5029330;28;20045;-78
2024/01/01 02:26:49;;;;;;;2.20;1.65;;;;;;;;;;5038070;28;20053;-78
2024/01/01 02:29:15;;;;;;;2.92;1.88;;;;;;;;;;5032257;28;20018;-77
2024/01/01 02:31:42;;;;;;;4.25;1.90;;;;;;;;;;5030500;28;20040;-77
2024/01/01 02:34:08;;;;;;;4.30;1.92;;;;;;;;;;5029621;28;20462;-78
2024/01/01 02:36:38;;;;;;;3.88;1.92;;;;;;;;;;5032232;28;20532;-78
2024/01/01 02:39:05;;;;;;;4.07;2.50;;;;;;;;;;5032283;28;20034;-78
2024/01/01 02:41:32;;;;;;;3.13;2.13;;;;;;;;;;5034787;28;20046;-77
2024/01/01 02:43:59;;;;;;;7.05;2.97;;;;;;;;;;5034598;28;20026;-78
2024/01/01 02:46:25;;;;;;;5.75;3.03;;;;;;;;;;5029148;28;20026;-77
2024/01/01 02:48:51;;;;;;;5.78;2.85;;;;;;;;;;5033118;28;20041;-78
2024/01/01 02:51:18;;;;;;;3.35;2.10;;;;;;;;;;5035140;28;20109;-78
2024/01/01 02:53:44;;;;;;;3.13;1.95;;;;;;;;;;5035195;28;20101;-79
2024/01/01 02:56:20;;;;;;;3.33;1.92;;;;;;;;;;5034802;28;20119;-78
2024/01/01 02:58:47;;;;;;;2.05;1.40;;;;;;;;;;5034350;28;20026;-77
2024/01/01 03:01:13;;;;;;;1.75;1.40;;;;;;;;;;5037314;28;20030;-78
2024/01/01 03:03:40;;;;;;;2.05;1.40;;;;;;;;;;5036066;28;20108;-77
2024/01/01 03:06:09;;;;;;;4.07;2.50;;;;;;;;;;5057132;23;20054;-80
2024/01/01 03:08:38;;;;;;;2.17;1.30;;;;;;;;;;5032764;28;20010;-79
2024/01/01 03:11:07;;;;;;;3.13;1.55;;;;;;;;;;5034917;28;20025;-79
2024/01/01 03:13:34;;;;;;;1.92;1.33;;;;;;;;;;5030563;28;20092;-79
2024/01/01 03:16:00;;;;;;;1.98;1.27;;;;;;;;;;5024815;28;20057;-78
2024/01/01 03:18:26;;;;;;;1.98;1.23;;;;;;;;;;5028409;28;20026;-79
2024/01/01 03:20:53;;;;;;;1.55;1.00;;;;;;;;;;5024627;28;20056;-78
2024/01/01 03:23:19;;;;;;;1.65;1.00;;;;;;;;;;5025076;28;20100;-79
2024/01/01 03:25:45;;;;;;;1.45;0.77;;;;;;;;;;5024000;28;20030;-79
2024/01/01 03:28:11;;;;;;;2.22;1.20;;;;;;;;;;5023458;28;20018;-79
2024/01/01 03:30:37;;;;;;;1.90;1.05;;;;;;;;;;5019475;28;20025;-79
2024/01/01 03:33:05;;;;;;;2.15;1.45;;;;;;;;;;5029598;28;20010;-79
2024/01/01 03:35:31;;;;;;;1.92;0.90;;;;;;;;;;5022175;28;20101;-79
2024/01/01 03:37:58;;;;;;;2.78;1.00;;;;;;;;;;5015476;28;20578;-79
2024/01/01 03:40:24;;;;;;;1.83;0.93;;;;;;;;;;5016693;28;20030;-77
2024/01/01 03:42:50;;;;;;;2.55;1.23;;;;;;;;;;5016695;28;20030;-78
2024/01/01 03:45:16;;;;;;;1.55;1.10;;;;;;;;;;5017843;28;20029;-79
2024/01/01 03:47:43;;;;;;;2.15;1.23;;;;;;;;;;5018273;28;20150;-78
2024/01/01 03:50:09;;;;;;;5.68;1.67;;;;;;;;;;5018665;28;20140;-79
2024/01/01 03:52:36;;;;;;;2.30;0.95;;;;;;;;;;5016446;28;20069;-79
2024/01/01 03:55:03;;;;;;;1.85;1.17;;;;;;;;;;5015731;28;20126;-78
2024/01/01 03:57:32;;;;;;;1.42;0.85;;;;;;;;;;5016095;28;20022;-79
2024/01/01 03:59:58;;;;;;;1.85;0.98;;;;;;;;;;5002753;28;20027;-77
2024/01/01 04:02:24;;;;;;;4.07;1.27;;;;;;;;;;5001334;28;20014;-79
2024/01/01 04:04:50;;;;;;;1.48;1.15;;;;;;;;;;5011228;28;20102;-81
2024/01/01 04:07:17;;;;;;;2.35;1.00;;;;;;;;;;5015554;28;20018;-79
2024/01/01 04:09:44;;;;;;;1.30;1.00;;;;;;;;;;5015701;28;20037;-80
2024/01/01 04:12:10;;;;;;;3.30;1.15;;;;;;;;;;5015666;28;20015;-77
2024/01/01 04:14:36;;;;;;;1.70;1.17;;;;;;;;;;5002885;28;20034;-79
2024/01/01 04:17:05;;;;;;;1.27;1.05;;;;;;;;;;4999051;28;20054;-79
2024/01/01 04:19:32;;;;;;;2.88;1.30;;;;;;;;;;4999656;28;20030;-80
2024/01/01 04:21:58;;;;;;;1.88;1.52;;;;;;;;;;4996917;28;20086;-80
2024/01/01 04:24:24;;;;;;;2.75;1.85;;;;;;;;;;4996672;28;20340;-78
2024/01/01 04:26:50;;;;;;;4.03;1.83;;;;;;;;;;4997034;28;20042;-80
2024/01/01 04:29:16;;;;;;;3.33;1.50;;;;;;;;;;4998591;28;20640;-79
2024/01/01 04:31:45;;;;;;;2.63;1.48;;;;;;;;;;4998659;28;20034;-80
2024/01/01 04:34:11;;;;;;;2.42;1.40;;;;;;;;;;4999714;28;20026;-78
2024/01/01 04:36:39;;;;;;;3.13;2.05;;;;;;;;;;5018545;28;20030;-78
2024/01/01 04:39:05;;;;;;;1.60;1.27;;;;;;;;;;5018230;28;20022;-79
2024/01/01 04:41:31;;;;;;;1.80;1.30;;;;;;;;;;5018827;28;20048;-78
2024/01/01 04:43:57;;;;;;;1.58;1.17;;;;;;;;;;5018553;28;20380;-79
2024/01/01 04:46:24;;;;;;;1.88;1.23;;;;;;;;;;5035682;28;20033;-78
2024/01/01 04:48:50;;;;;;;1.08;0.70;;;;;;;;;;5038345;28;20112;-79
2024/01/01 04:51:16;;;;;;;1.50;0.75;;;;;;;;;;5021370;28;20050;-79
2024/01/01 04:53:42;;;;;;;1.25;0.75;;;;;;;;;;5018272;28;20061;-80
2024/01/01 04:56:08;;;;;;;2.15;1.00;;;;;;;;;;5017069;28;20041;-80
2024/01/01 04:58:34;;;;;;;0.98;0.70;;;;;;;;;;5018968;28;20026;-79
2024/01/01 05:01:00;;;;;;;3.75;1.02;;;;;;;;;;5018973;28;20085;-79
2024/01/01 05:03:27;;;;;;;3.45;1.10;;;;;;;;;;5017812;28;20022;-80
2024/01/01 05:05:53;;;;;;;2.85;1.10;;;;;;;;;;5019214;28;20025;-78
2024/01/01 05:08:19;;;;;;;4.18;0.85;;;;;;;;;;5025513;28;20026;-78
2024/01/01 05:10:52;;;;;;;2.28;0.77;;;;;;;;;;5027020;28;20113;-79
2024/01/01 05:13:18;;;;;;;;;;;;;;;;;;5027087;28;20160;-79
2024/01/01 05:15:45;;;;;;;1.42;0.90;;;;;;;;;;5024922;28;19916;-78
2024/01/01 05:18:11;;;;;;;1.00;0.50;;;;;;;;;;5017076;28;20019;-79
2024/01/01 05:20:37;;;;;;;1.73;0.80;;;;;;;;;;5001945;28;20041;-78
2024/01/01 05:23:03;;;;;;;1.60;0.70;;;;;;;;;;5000402;28;20177;-79
2024/01/01 05:25:29;;;;;;;1.05;0.70;;;;;;;;;;5001954;28;20023;-79
2024/01/01 05:27:55;;;;;;;0.80;0.80;;;;;;;;;;5021823;28;20022;-79
2024/01/01 05:30:21;;;;;;;2.42;0.70;;;;;;;;;;5021272;28;20032;-79
2024/01/01 05:32:47;;;;;;;0.90;0.70;;;;;;;;;;5019942;28;20030;-79
2024/01/01 05:35:14;;;;;;;0.70;0.70;;;;;;;;;;5021710;28;20085;-79
2024/01/01 05:37:40;;;;;;;1.52;0.82;;;;;;;;;;5020151;28;20041;-79
2024/01/01 05:40:06;;;;;;;3.67;1.20;;;;;;;;;;5019489;28;20030;-79
2024/01/01 05:42:33;;;;;;;1.10;0.52;;;;;;;;;;5020253;28;20026;-78
2024/01/01 05:44:59;;;;;;;1.25;0.80;;;;;;;;;;5018705;28;20052;-80
2024/01/01 05:47:25;;;;;;;0.73;0.40;;;;;;;;;;5020299;28;20026;-79
2024/01/01 05:49:51;;;;;;;1.35;0.70;;;;;;;;;;5019288;28;20065;-79
2024/01/01 05:52:21;;;;;;;0.70;0.57;;;;;;;;;;5019815;28;20022;-78
2024/01/01 05:54:47;;;;;;;0.77;0.70;;;;;;;;;;5019829;28;20514;-79
2024/01/01 05:57:13;;;;;;;1.20;0.60;;;;;;;;;;5019827;28;20049;-78
2024/01/01 05:59:40;;;;;;;1.00;0.70;;;;;;;;;;5018875;28;20034;-79
2024/01/01 06:02:07;;;;;;;0.77;0.63;;;;;;;;;;5018033;28;20026;-79
2024/01/01 06:04:34;;;;;;;2.97;0.77;;;;;;;;;;5017845;28;20047;-80
2024/01/01 06:07:00;;;;;;;3.75;0.95;;;;;;;;;;5017411;28;20034;-78
2024/01/01 06:09:26;;;;;;;2.22;0.80;;;;;;;;;;5018511;28;20782;-78
2024/01/01 06:11:52;;;;;;;1.42;0.77;;;;;;;;;;5018011;28;20030;-79
2024/01/01 06:14:19;;;;;;;2.53;0.85;;;;;;;;;;5016455;28;20034;-79
2024/01/01 06:16:45;;;;;;;3.17;0.90;;;;;;;;;;5016146;28;20443;-78
2024/01/01 06:19:12;;;;;;;1.13;0.85;;;;;;;;;;5016301;28;20077;-79
2024/01/01 06:21:39;;;;;;;1.67;0.80;;;;;;;;;;5014992;28;20654;-77
2024/01/01 06:24:06;;;;;;;1.50;0.90;;;;;;;;;;5018367;28;20484;-77
2024/01/01 06:26:32;;;;;;;2.05;1.00;;;;;;;;;;5019281;28;20361;-79
2024/01/01 06:28:59;;;;;;;1.17;0.90;;;;;;;;;;5019790;28;20041;-80
2024/01/01 06:31:25;;;;;;;1.88;1.00;;;;;;;;;;5016640;28;20029;-79
2024/01/01 06:33:51;;;;;;;0.68;0.68;;;;;;;;;;5015538;28;20052;-78
2024/01/01 06:36:18;;;;;;;3.35;0.93;;;;;;;;;;5021551;28;20097;-79
2024/01/01 06:38:44;;;;;;;0.93;0.77;;;;;;;;;;5031679;28;20030;-79
2024/01/01 06:41:10;;;;;;;1.42;0.90;;;;;;;;;;5030684;28;20081;-79
2024/01/01 06:43:36;;;;;;;2.45;0.90;;;;;;;;;;5033001;28;20025;-79
2024/01/01 06:46:04;;;;;;;1.20;0.77;;;;;;;;;;5034981;28;20080;-79
2024/01/01 06:48:30;;;;;;;1.30;0.98;;;;;;;;;;5033363;28;20388;-78
2024/01/01 06:50:57;;;;;;;3.92;1.13;;;;;;;;;;5031124;28;20028;-79
2024/01/01 06:53:23;;;;;;;0.82;0.75;;;;;;;;;;5034131;28;20094;-78
2024/01/01 06:55:49;;;;;;;1.90;1.00;;;;;;;;;;5029809;28;20026;-81
2024/01/01 06:58:16;;;;;;;1.80;1.27;;;;;;;;;;5022500;28;20094;-79
2024/01/01 07:00:43;;;;;;;1.52;1.15;;;;;;;;;;5033880;28;20056;-79
2024/01/01 07:03:09;;;;;;;2.40;0.70;;;;;;;;;;5039581;28;20041;-79
2024/01/01 07:05:36;;;;;;;2.47;1.02;;;;;;;;;;5021449;28;20093;-78
2024/01/01 07:08:03;;;;;;;2.83;0.50;;;;;;;;;;5013969;28;20041;-79
2024/01/01 07:10:30;;;;;;;0.93;0.70;;;;;;;;;;5012067;28;20046;-80
2024/01/01 07:12:57;;;;;;;1.58;0.50;;;;;;;;;;5013595;28;20061;-79
2024/01/01 07:15:24;;;;;;;1.40;0.55;;;;;;;;;;5019525;28;20067;-79
2024/01/01 07:17:50;;;;;;;1.80;0.70;;;;;;;;;;5018618;28;20022;-79
2024/01/01 07:20:19;;;;;;;1.83;0.77;;;;;;;;;;5023501;28;20495;-79
2024/01/01 07:22:45;;;;;;;0.98;0.57;;;;;;;;;;5033667;28;20132;-81
2024/01/01 07:25:11;;;;;;;2.28;0.85;;;;;;;;;;5016915;28;20139;-80
2024/01/01 07:27:39;;;;;;;1.60;0.68;;;;;;;;;;5038995;28;20025;-80
2024/01/01 07:30:06;;;;;;;1.85;1.05;;;;;;;;;;5015187;28;20026;-81
2024/01/01 07:32:32;;;;;;;1.92;0.55;;;;;;;;;;5024587;28;20029;-81
2024/01/01 07:35:00;;;;;;;1.88;0.80;;;;;;;;;;5028866;28;20022;-80
2024/01/01 07:37:26;;;;;;;2.75;0.80;;;;;;;;;;5015433;28;20034;-83
2024/01/01 07:39:52;;;;;;;2.10;0.90;;;;;;;;;;5011684;28;20755;-80
2024/01/01 07:42:18;;;;;;;1.48;0.75;;;;;;;;;;5013505;28;20086;-81
2024/01/01 07:44:45;;;;;;;2.45;1.10;;;;;;;;;;5016627;28;20033;-80
2024/01/01 07:47:11;;;;;;;0.98;0.80;;;;;;;;;;5013606;28;20025;-81
2024/01/01 07:49:37;;;;;;;1.73;0.70;;;;;;;;;;5013004;28;20026;-82
2024/01/01 07:52:03;;;;;;;1.60;0.70;;;;;;;;;;5035430;28;20032;-82
2024/01/01 07:54:29;;;;;;;0.68;0.60;;;;;;;;;;5021431;28;20040;-81
2024/01/01 07:56:56;;;;;;;1.35;0.45;;;;;;;;;;5020634;28;20057;-81
2024/01/01 07:59:22;;;;;;;1.52;0.65;;;;;;;;;;5005490;28;20109;-82
2024/01/01 08:01:48;;;;;;;1.77;0.95;;;;;;;;;;5018306;28;20105;-82
2024/01/01 08:04:14;;;;;;;2.40;1.17;;;;;;;;;;5014153;28;20019;-80
2024/01/01 08:06:40;;;;;;;2.25;1.00;;;;;;;;;;5017712;28;20472;-82
2024/01/01 08:09:06;;;;;;;1.13;0.60;;;;;;;;;;5026375;28;20034;-82
2024/01/01 08:11:35;;;;;;;1.98;0.50;;;;;;;;;;5034134;28;20025;-80
2024/01/01 08:14:02;;;;;;;2.42;0.50;;;;;;;;;;5026944;28;20096;-81
2024/01/01 08:16:28;;;;;;;1.42;0.68;;;;;;;;;;5033850;28;20106;-81
2024/01/01 08:18:54;;;;;;;1.15;0.60;;;;;;;;;;5004007;28;20057;-82
2024/01/01 08:21:21;;;;;;;0.98;0.88;;;;;;;;;;5021124;28;20085;-82
2024/01/01 08:23:47;;;;;;;2.80;0.80;;;;;;;;;;5025538;28;20024;-82
2024/01/01 08:26:13;;;;;;;1.98;1.08;;;;;;;;;;5030437;28;20074;-81
2024/01/01 08:28:39;;;;;;;4.07;1.27;;;;;;;;;;5024022;28;20022;-82
2024/01/01 08:31:08;;;;;;;1.58;0.90;;;;;;;;;;5033754;28;20113;-83
2024/01/01 08:33:34;;;;;;;2.28;0.80;;;;;;;;;;5039174;28;20455;-82
2024/01/01 08:36:00;;;;;;;1.35;0.70;;;;;;;;;;5042239;28;20049;-82
2024/01/01 08:38:26;;;;;;;2.15;0.77;;;;;;;;;;5045590;28;20475;-81
2024/01/01 08:40:52;;;;;;;1.33;0.75;;;;;;;;;;5023489;28;20022;-82
2024/01/01 08:43:19;;;;;;;5.45;1.35;;;;;;;;;;5027223;28;20022;-81
2024/01/01 08:45:51;;;;;;;2.35;0.93;;;;;;;;;;5029718;28;20057;-80
2024/01/01 08:48:18;;;;;;;1.30;0.77;;;;;;;;;;5017345;28;20052;-79
2024/01/01 08:50:44;;;;;;;5.43;1.40;;;;;;;;;;5004843;28;20022;-79
2024/01/01 08:53:10;;;;;;;2.90;1.08;;;;;;;;;;5004278;28;20026;-78
2024/01/01 08:55:36;;;;;;;1.27;0.75;;;;;;;;;;5007159;28;20082;-78
2024/01/01 08:58:02;;;;;;;3.05;1.30;;;;;;;;;;5007448;28;20412;-77
2024/01/01 09:00:28;;;;;;;1.48;0.70;;;;;;;;;;5002324;28;20113;-77
2024/01/01 09:02:55;;;;;;;3.65;0.95;;;;;;;;;;5014589;28;20032;-77
2024/01/01 09:05:21;;;;;;;1.95;0.77;;;;;;;;;;5016926;28;20092;-77
2024/01/01 09:07:47;;;;;;;1.65;1.00;;;;;;;;;;5000475;28;20085;-77
2024/01/01 09:10:13;;;;;;;2.00;0.77;;;;;;;;;;5022680;28;20094;-78
2024/01/01 09:12:39;;;;;;;2.83;0.68;;;;;;;;;;4998243;28;20031;-78
2024/01/01 09:15:05;;;;;;;3.20;1.05;;;;;;;;;;4996999;28;20424;-77
2024/01/01 09:17:32;;;;;;;1.73;0.98;;;;;;;;;;5012993;28;20034;-78
2024/01/01 09:19:58;;;;;;;4.22;1.10;;;;;;;;;;5003540;28;20026;-77
2024/01/01 09:22:24;;;;;;;4.53;1.10;;;;;;;;;;5012320;28;20041;-77
2024/01/01 09:24:50;;;;;;;3.85;1.30;;;;;;;;;;4994811;28;20018;-77
2024/01/01 09:27:16;;;;;;;1.48;1.02;;;;;;;;;;5003876;28;20054;-77
2024/01/01 09:29:42;;;;;;;2.53;0.80;;;;;;;;;;4997677;28;20025;-77
2024/01/01 09:32:09;;;;;;;3.60;1.13;;;;;;;;;;5007905;28;20026;-79
2024/01/01 09:34:35;;;;;;;2.13;0.82;;;;;;;;;;4996692;28;20030;-78
2024/01/01 09:37:01;;;;;;;1.23;1.00;;;;;;;;;;5007729;28;20030;-77
2024/01/01 09:39:28;;;;;;;2.35;0.90;;;;;;;;;;5007170;28;20497;-77
2024/01/01 09:41:54;;;;;;;2.05;0.70;;;;;;;;;;5011967;28;20445;-77
2024/01/01 09:44:20;;;;;;;1.42;0.70;;;;;;;;;;5014023;28;20022;-76
2024/01/01 09:46:47;;;;;;;1.25;0.75;;;;;;;;;;5023006;28;20552;-77
2024/01/01 09:49:13;;;;;;;2.05;0.95;;;;;;;;;;5024013;28;20029;-77
2024/01/01 09:51:40;;;;;;;2.78;1.00;;;;;;;;;;5025078;28;20030;-78
2024/01/01 09:54:09;;;;;;;2.30;1.30;;;;;;;;;;5017331;28;20036;-77
2024/01/01 09:56:36;;;;;;;4.35;0.80;;;;;;;;;;5020794;28;20041;-79
2024/01/01 09:59:02;;;;;;;0.75;0.70;;;;;;;;;;5011883;28;20144;-77
2024/01/01 10:01:30;;;;;;;4.35;0.90;;;;;;;;;;5013715;28;20422;-79
2024/01/01 10:04:04;;;;;;;1.60;0.60;;;;;;;;;;5004165;28;20034;-77
2024/01/01 10:06:32;;;;;;;1.73;0.60;;;;;;;;;;5015430;28;20057;-76
2024/01/01 10:09:11;;;;;;;2.10;0.73;;;;;;;;;;5000085;28;20069;-78
2024/01/01 10:11:42;;;;;;;1.88;0.73;;;;;;;;;;5024193;28;20040;-78
2024/01/01 10:14:12;;;;;;;2.80;0.73;;;;;;;;;;5000024;28;20030;-77
2024/01/01 10:16:39;;;;;;;2.58;0.70;;;;;;;;;;4994988;28;20053;-77
2024/01/01 10:19:06;;;;;;;3.92;1.42;;;;;;;;;;4994596;28;20026;-77
2024/01/01 10:21:34;;;;;;;2.95;0.75;;;;;;;;;;5022686;28;20101;-76
2024/01/01 10:24:15;;;;;;;3.78;0.77;;;;;;;;;;5011170;28;20030;-76
2024/01/01 10:26:48;;;;;;;4.28;1.00;;;;;;;;;;5004280;28;20068;-78
2024/01/01 10:29:15;;;;;;;1.77;0.50;;;;;;;;;;5007383;28;20027;-77
2024/01/01 10:31:44;;;;;;;4.68;1.02;;;;;;;;;;5011182;28;20052;-78
2024/01/01 10:34:12;;;;;;;2.13;0.85;;;;;;;;;;5025992;28;20025;-77
2024/01/01 10:36:38;;;;;;;3.60;0.73;;;;;;;;;;5021019;28;20090;-77
2024/01/01 10:39:08;;;;;;;1.67;0.60;;;;;;;;;;5009460;28;20033;-76
2024/01/01 10:41:36;;;;;;;1.50;0.80;;;;;;;;;;5014126;28;20029;-76
2024/01/01 10:44:09;;;;;;;2.08;0.60;;;;;;;;;;5009226;28;20033;-78
2024/01/01 10:46:39;;;;;;;5.57;0.65;;;;;;;;;;5005074;28;20018;-77
2024/01/01 10:49:11;;;;;;;4.45;0.88;;;;;;;;;;5005419;28;20048;-78
2024/01/01 10:51:42;;;;;;;5.95;0.57;;;;;;;;;;5017815;28;20024;-77
2024/01/01 10:54:27;;;;;;;3.22;0.98;;;;;;;;;;5018959;28;20044;-77
2024/01/01 10:57:02;;;;;;;4.13;0.90;;;;;;;;;;4999109;28;20030;-78
2024/01/01 10:59:34;;;;;;;1.60;0.73;;;;;;;;;;5007649;28;20022;-77
2024/01/01 11:02:01;;;;;;;4.10;1.27;;;;;;;;;;5001933;28;20054;-78
2024/01/01 11:04:28;;;;;;;2.33;0.80;;;;;;;;;;5016954;28;20025;-77
2024/01/01 11:06:54;;;;;;;1.60;0.60;;;;;;;;;;5010119;28;20118;-76
2024/01/01 11:09:23;;;;;;;1.38;0.70;;;;;;;;;;5001205;28;20041;-77
2024/01/01 11:11:50;;;;;;;2.15;0.57;;;;;;;;;;4993635;28;20027;-76
2024/01/01 11:14:26;;;;;;;2.40;0.80;;;;;;;;;;4998554;28;20026;-77
2024/01/01 11:16:53;;;;;;;1.40;0.80;;;;;;;;;;5003343;28;20019;-77
2024/01/01 11:19:35;;;;;;;1.75;0.93;;;;;;;;;;5001763;28;20114;-78
2024/01/01 11:22:20;;;;;;;3.58;0.70;;;;;;;;;;5002891;28;20042;-77
2024/01/01 11:24:50;;;;;;;4.28;0.80;;;;;;;;;;4993881;28;20084;-80
2024/01/01 11:27:35;;;;;;;1.50;0.70;;;;;;;;;;4996711;28;20349;-79
2024/01/01 11:30:06;;;;;;;4.10;0.60;;;;;;;;;;5015630;28;20034;-78
2024/01/01 11:32:32;;;;;;;1.60;0.60;;;;;;;;;;5015517;28;20022;-78
2024/01/01 11:35:09;;;;;;;1.85;0.50;;;;;;;;;;5021149;28;20071;-78
2024/01/01 11:37:36;;;;;;;1.48;0.77;;;;;;;;;;5006095;28;20071;-78
2024/01/01 11:40:03;;;;;;;1.52;0.63;;;;;;;;;;5005367;28;20022;-78
2024/01/01 11:42:29;;;;;;;2.10;0.43;;;;;;;;;;4998998;28;20030;-78
2024/01/01 11:45:14;;;;;;;1.45;0.75;;;;;;;;;;5003882;28;20105;-77
2024/01/01 11:47:40;;;;;;;1.65;0.75;;;;;;;;;;5005585;28;20030;-77
2024/01/01 11:50:07;;;;;;;2.55;1.20;;;;;;;;;;4999900;28;20532;-78
2024/01/01 11:52:34;;;;;;;3.15;0.90;;;;;;;;;;5001908;28;20030;-78
2024/01/01 11:55:00;;;;;;;3.40;1.00;;;;;;;;;;5000707;28;20482;-79
2024/01/01 11:57:26;;;;;;;2.03;0.75;;;;;;;;;;5009456;28;20080;-78
2024/01/01 11:59:53;;;;;;;3.00;0.60;;;;;;;;;;5013762;28;20026;-79
2024/01/01 12:02:19;;;;;;;4.40;1.00;;;;;;;;;;5015324;28;20027;-78
2024/01/01 12:04:54;;;;;;;1.50;0.80;;;;;;;;;;5014706;28;20022;-80
2024/01/01 12:07:33;;;;;;;10.38;1.20;;;;;;;;;;5004323;28;20500;-78
2024/01/01 12:10:08;;;;;;;3.88;1.00;;;;;;;;;;5012521;28;20030;-78
2024/01/01 12:12:39;;;;;;;2.85;1.02;;;;;;;;;;5002619;28;20029;-78
2024/01/01 12:15:14;;;;;;;3.90;1.20;;;;;;;;;;5003993;28;20485;-77
2024/01/01 12:17:41;;;;;;;4.75;1.48;;;;;;;;;;4997200;28;20022;-78
2024/01/01 12:20:09;;;;;;;4.13;1.00;;;;;;;;;;5011618;28;20117;-79
2024/01/01 12:22:36;;;;;;;3.30;1.15;;;;;;;;;;5001068;28;20026;-79
2024/01/01 12:25:02;;;;;;;5.78;1.17;;;;;;;;;;5018699;28;20022;-79
2024/01/01 12:27:28;;;;;;;2.65;0.93;;;;;;;;;;5020156;28;20033;-80
2024/01/01 12:29:57;;;;;;;3.05;0.82;;;;;;;;;;5020479;28;20427;-80
2024/01/01 12:32:23;;;;;;;5.70;1.30;;;;;;;;;;5018708;28;20022;-79
2024/01/01 12:34:51;;;;;;;3.25;1.23;;;;;;;;;;5020792;28;20026;-79
2024/01/01 12:37:17;;;;;;;3.55;1.08;;;;;;;;;;5021765;28;20025;-78
2024/01/01 12:39:44;;;;;;;2.40;1.00;;;;;;;;;;5021225;28;20029;-78
2024/01/01 12:42:11;;;;;;;3.53;0.93;;;;;;;;;;5021121;28;20448;-79
2024/01/01 12:44:37;;;;;;;3.33;1.10;;;;;;;;;;5021412;28;20457;-78
2024/01/01 12:47:03;;;;;;;6.93;1.25;;;;;;;;;;5023915;28;20125;-79
2024/01/01 12:49:34;;;;;;;3.15;0.73;;;;;;;;;;5027253;28;20030;-78
2024/01/01 12:52:00;;;;;;;3.10;1.10;;;;;;;;;;5019465;28;20430;-79
2024/01/01 12:54:26;;;;;;;2.35;0.65;;;;;;;;;;5008449;28;20034;-81
2024/01/01 12:56:52;;;;;;;3.63;0.82;;;;;;;;;;5011007;28;20057;-78
2024/01/01 12:59:20;;;;;;;5.63;0.80;;;;;;;;;;5003909;28;20102;-80
2024/01/01 13:01:46;;;;;;;2.42;0.77;;;;;;;;;;5018133;28;20042;-80
2024/01/01 13:04:13;;;;;;;2.30;0.90;;;;;;;;;;5012778;28;20539;-79
2024/01/01 13:06:39;;;;;;;3.67;1.08;;;;;;;;;;5005498;28;20073;-79
2024/01/01 13:09:06;;;;;;;4.03;0.85;;;;;;;;;;5009374;28;20045;-79
2024/01/01 13:11:33;;;;;;;4.07;1.08;;;;;;;;;;5012231;28;20022;-79
2024/01/01 13:13:59;;;;;;;4.88;1.20;;;;;;;;;;5022748;28;20114;-79
2024/01/01 13:16:25;;;;;;;3.30;1.00;;;;;;;;;;5020771;28;20033;-81
2024/01/01 13:18:51;;;;;;;4.43;0.82;;;;;;;;;;5019558;28;20089;-79
2024/01/01 13:21:18;;;;;;;2.88;0.90;;;;;;;;;;5020532;28;20090;-80
2024/01/01 13:23:44;;;;;;;2.22;0.93;;;;;;;;;;5018720;28;20507;-80
2024/01/01 13:26:10;;;;;;;2.47;1.02;;;;;;;;;;5019422;28;20029;-80
2024/01/01 13:28:36;;;;;;;3.15;0.98;;;;;;;;;;5019701;28;20029;-80
2024/01/01 13:31:03;;;;;;;3.58;1.08;;;;;;;;;;5018603;28;20397;-81
2024/01/01 13:33:29;;;;;;;2.17;1.05;;;;;;;;;;5021473;28;20077;-80
2024/01/01 13:35:55;;;;;;;3.03;1.08;;;;;;;;;;5024658;28;20045;-79
2024/01/01 13:38:21;;;;;;;5.55;1.23;;;;;;;;;;5024164;28;20175;-80
2024/01/01 13:40:47;;;;;;;2.30;0.85;;;;;;;;;;5019432;28;20045;-79
2024/01/01 13:43:14;;;;;;;4.53;1.60;;;;;;;;;;5018163;28;20494;-79
2024/01/01 13:45:41;;;;;;;3.55;1.08;;;;;;;;;;5018623;28;20021;-80
2024/01/01 13:48:14;;;;;;;3.42;1.10;;;;;;;;;;5019880;28;20021;-81
2024/01/01 13:50:40;;;;;;;5.93;0.95;;;;;;;;;;5019447;28;20113;-81
2024/01/01 13:53:07;;;;;;;1.95;0.90;;;;;;;;;;5020402;28;20038;-81
2024/01/01 13:55:33;;;;;;;3.00;0.93;;;;;;;;;;5020683;28;20101;-80
2024/01/01 13:58:03;;;;;;;4.40;1.13;;;;;;;;;;5018339;28;20047;-78
2024/01/01 14:00:29;;;;;;;1.20;0.82;;;;;;;;;;5023287;28;20457;-78
2024/01/01 14:02:55;;;;;;;2.80;1.17;;;;;;;;;;5017784;28;20049;-80
2024/01/01 14:05:22;;;;;;;2.67;0.98;;;;;;;;;;5018666;28;20046;-79
2024/01/01 14:07:49;;;;;;;4.00;1.10;;;;;;;;;;5021890;28;20087;-79
2024/01/01 14:10:18;;;;;;;6.30;1.20;;;;;;;;;;5035215;28;20022;-80
2024/01/01 14:12:44;;;;;;;3.40;1.00;;;;;;;;;;4999432;28;20033;-79
2024/01/01 14:15:11;;;;;;;2.25;0.90;;;;;;;;;;5019057;28;20049;-79
2024/01/01 14:17:37;;;;;;;4.72;0.93;;;;;;;;;;5010552;28;20097;-78
2024/01/01 14:20:04;;;;;;;3.60;1.00;;;;;;;;;;5017686;28;20034;-78
2024/01/01 14:22:31;;;;;;;3.08;1.00;;;;;;;;;;5023231;28;20026;-78
2024/01/01 14:24:57;;;;;;;1.20;0.52;;;;;;;;;;5028999;28;20045;-78
2024/01/01 14:27:23;;;;;;;5.13;1.30;;;;;;;;;;5042266;28;20024;-78
2024/01/01 14:29:50;;;;;;;3.00;0.95;;;;;;;;;;5039622;28;20026;-78
2024/01/01 14:32:16;;;;;;;6.03;1.33;;;;;;;;;;5036245;28;20053;-79
2024/01/01 14:34:42;;;;;;;2.63;0.93;;;;;;;;;;5026225;28;20361;-77
2024/01/01 14:37:09;;;;;;;2.30;0.70;;;;;;;;;;5027939;28;20124;-78
2024/01/01 14:39:35;;;;;;;1.35;0.73;;;;;;;;;;5026777;28;20068;-79